Time;durP1;ratioP1;P1;durP2;ratioP2;P2;SDS_P1;SDS_P2;PMS_P1;PMS_P2;Temp;Humidity;BMP_temperature;BMP_pressure;BME280_temperature;BME280_humidity;BME280_pressure;Samples;Min_cycle;Max_cycle;Signal;HPM_P1;HPM_P2
2022/02/22 00:08:22;;;;;;;6.10;2.40;;;;;;;3.79;68.31;97009.92;434974;1263;112321;-41
2022/02/22 00:18:29;;;;;;;6.40;1.80;;;;;;;3.93;68.32;97030.89;434975;1264;108817;-42
2022/02/22 00:28:37;;;;;;;8.50;3.10;;;;;;;4.10;68.29;97049.49;434116;1265;99245;-41
2022/02/22 00:38:44;;;;;;;6.80;2.70;;;;;;;4.12;68.42;97059.23;435093;1263;112434;-42
2022/02/22 00:48:52;;;;;;;7.70;3.00;;;;;;;4.10;68.46;97071.95;434960;1263;108869;-41
2022/02/22 00:58:59;;;;;;;11.10;5.60;;;;;;;4.09;68.65;97089.23;434994;1263;98046;-43
2022/02/22 01:19:13;;;;;;;10.30;6.20;;;;;;;4.16;68.97;97116.39;434792;1263;108127;-41
2022/02/22 01:29:21;;;;;;;8.00;2.30;;;;;;;4.10;69.91;97131.38;434855;1264;99157;-42
2022/02/22 01:39:28;;;;;;;5.30;1.90;;;;;;;4.00;70.14;97161.19;434831;1264;108889;-41
2022/02/22 01:49:36;;;;;;;3.40;1.60;;;;;;;3.91;70.70;97179.90;434823;1263;98870;-41
2022/02/22 01:59:41;;;;;;;2.60;1.00;;;;;;;3.90;71.49;97188.97;434136;1264;112478;-41
2022/02/22 02:09:51;;;;;;;2.80;1.40;;;;;;;3.83;72.62;97210.44;435786;1251;108865;-40
2022/02/22 02:19:57;;;;;;;1.90;1.40;;;;;;;3.66;73.44;97228.90;434629;1264;99287;-41
2022/02/22 02:30:03;;;;;;;3.40;1.20;;;;;;;3.45;73.69;97244.85;434629;1263;109478;-41
2022/02/22 02:40:12;;;;;;;4.80;1.60;;;;;;;3.30;73.94;97263.26;434007;1265;108729;-41
2022/02/22 02:50:19;;;;;;;1.50;1.00;;;;;;;3.14;74.87;97277.40;434172;1265;98053;-41
2022/02/22 03:00:25;;;;;;;2.50;1.20;;;;;;;2.90;75.49;97292.07;434412;1264;107815;-44
2022/02/22 03:10:33;;;;;;;1.40;0.80;;;;;;;2.78;76.33;97304.89;434279;1264;98920;-40
2022/02/22 03:20:40;;;;;;;2.90;1.20;;;;;;;2.65;76.66;97321.30;434296;1263;112381;-40
2022/02/22 03:30:47;;;;;;;2.40;1.30;;;;;;;2.49;76.79;97338.73;434244;1264;108791;-42
2022/02/22 03:40:55;;;;;;;5.20;2.90;;;;;;;2.28;76.99;97360.83;434230;1265;99241;-42
2022/02/22 03:51:02;;;;;;;1.80;1.70;;;;;;;2.23;76.86;97384.72;434329;1264;108922;-40
2022/02/22 04:01:09;;;;;;;6.00;1.70;;;;;;;2.34;76.87;97412.68;434277;1264;99296;-41
2022/02/22 04:11:16;;;;;;;2.60;1.40;;;;;;;2.31;76.90;97436.69;434320;1265;112927;-42
2022/02/22 04:21:26;;;;;;;3.70;1.90;;;;;;;2.18;77.34;97454.08;434307;1264;108904;-42
2022/02/22 04:31:38;;;;;;;4.70;2.50;;;;;;;2.03;77.84;97465.13;434308;1265;99276;-40
2022/02/22 04:41:45;;;;;;;1.90;1.40;;;;;;;2.04;78.29;97479.45;434359;1264;108937;-43
2022/02/22 04:51:52;;;;;;;13.90;9.00;;;;;;;2.14;78.07;97488.06;434238;1263;101353;-44
2022/02/22 05:01:59;;;;;;;3.80;1.40;;;;;;;2.24;77.96;97498.15;434286;1264;112487;-42
2022/02/22 05:12:09;;;;;;;10.70;3.00;;;;;;;2.24;78.24;97515.68;434233;1264;108759;-43
2022/02/22 05:22:16;;;;;;;12.90;4.70;;;;;;;2.21;78.51;97532.52;434445;1263;98020;-40
2022/02/22 05:32:24;;;;;;;12.30;2.50;;;;;;;2.24;78.74;97552.29;434211;1264;109021;-40
2022/02/22 05:42:33;;;;;;;3.80;2.20;;;;;;;2.29;78.82;97567.39;434184;1264;99273;-39
2022/02/22 05:52:40;;;;;;;10.80;2.70;;;;;;;2.30;78.96;97588.58;434397;1265;112473;-42
2022/02/22 06:02:48;;;;;;;20.40;7.20;;;;;;;2.35;78.90;97603.59;434279;1264;108209;-44
2022/02/22 06:12:54;;;;;;;11.90;5.30;;;;;;;2.28;79.28;97616.23;434476;1265;98835;-40
2022/02/22 06:23:02;;;;;;;7.90;2.40;;;;;;;2.31;79.24;97628.15;434359;1264;112698;-41
2022/02/22 06:33:10;;;;;;;6.00;1.60;;;;;;;2.44;79.52;97646.98;434342;1262;110741;-43
2022/02/22 06:43:18;;;;;;;9.70;3.10;;;;;;;2.64;79.75;97651.98;434376;1264;99285;-43
2022/02/22 06:53:25;;;;;;;18.60;5.80;;;;;;;2.79;79.66;97678.45;434262;1264;109105;-42
2022/02/22 07:03:32;;;;;;;26.70;12.40;;;;;;;2.78;79.85;97697.93;430192;1264;5557331;-41
2022/02/22 07:23:45;;;;;;;21.30;8.40;;;;;;;2.98;80.12;97719.00;434089;1264;108850;-42
2022/02/22 07:33:52;;;;;;;17.70;10.50;;;;;;;3.10;80.50;97735.58;434269;1264;98847;-41
2022/02/22 07:43:59;;;;;;;18.70;8.60;;;;;;;3.30;80.45;97740.88;434266;1263;108930;-41
2022/02/22 07:54:10;;;;;;;26.40;9.80;;;;;;;3.42;80.63;97756.17;434214;1264;98139;-42
2022/02/22 08:04:17;;;;;;;9.30;6.10;;;;;;;3.47;80.39;97782.98;434276;1263;112480;-42
2022/02/22 08:14:24;;;;;;;9.30;3.70;;;;;;;3.55;80.48;97796.20;434390;1264;107869;-40
2022/02/22 08:24:31;;;;;;;13.20;4.90;;;;;;;3.65;80.49;97806.83;434180;1264;99274;-43
2022/02/22 08:34:38;;;;;;;13.40;5.80;;;;;;;3.65;80.69;97821.25;434236;1264;108393;-40
2022/02/22 08:44:46;;;;;;;10.30;3.30;;;;;;;3.73;80.76;97831.30;434273;1264;97997;-40
2022/02/22 08:54:54;;;;;;;10.30;4.20;;;;;;;3.95;80.65;97849.53;434186;1261;99399;-41
2022/02/22 09:05:01;;;;;;;7.20;3.10;;;;;;;4.34;80.70;97859.20;434134;1264;108919;-42
2022/02/22 09:15:10;;;;;;;9.00;4.30;;;;;;;4.64;80.85;97875.00;434215;1264;99294;-41
2022/02/22 09:35:27;;;;;;;7.60;3.60;;;;;;;5.04;80.81;97891.29;434075;1264;108808;-42
2022/02/22 09:45:34;;;;;;;12.20;5.00;;;;;;;5.34;80.78;97892.91;434008;1261;99372;-40
2022/02/22 09:55:42;;;;;;;6.40;3.10;;;;;;;5.24;80.63;97910.70;434230;1263;108855;-42
2022/02/22 10:05:53;;;;;;;5.60;3.20;;;;;;;4.93;80.89;97926.73;434263;1264;98751;-42
2022/02/22 10:16:04;;;;;;;5.90;3.40;;;;;;;5.13;81.15;97934.48;434326;1263;111082;-42
2022/02/22 10:26:19;;;;;;;4.00;1.90;;;;;;;5.81;81.21;97937.10;434134;1263;108856;-42
2022/02/22 10:36:34;;;;;;;6.60;2.40;;;;;;;6.44;81.09;97933.08;434309;1264;99290;-43
2022/02/22 10:56:50;;;;;;;7.70;3.20;;;;;;;6.95;79.53;97927.76;434188;1263;98946;-41
2022/02/22 11:06:58;;;;;;;7.20;3.60;;;;;;;6.48;78.84;97949.46;434279;1264;112433;-41
2022/02/22 11:17:18;;;;;;;6.40;2.70;;;;;;;5.61;78.71;97965.71;434283;1264;108841;-42
2022/02/22 11:27:27;;;;;;;5.00;2.80;;;;;;;5.19;79.34;97975.16;434151;1264;99267;-43
2022/02/22 11:37:34;;;;;;;5.30;2.60;;;;;;;5.26;79.75;97983.32;434236;1263;108359;-41
2022/02/22 11:47:42;;;;;;;7.20;2.40;;;;;;;4.94;80.25;98006.42;434167;1264;98023;-42
2022/02/22 11:57:51;;;;;;;7.50;2.90;;;;;;;4.92;80.69;98016.71;434299;1264;111630;-41
2022/02/22 12:18:05;;;;;;;24.30;4.20;;;;;;;4.90;80.43;98054.30;434224;1264;99245;-41
2022/02/22 12:28:12;;;;;;;10.10;2.20;;;;;;;4.55;79.96;98060.41;434213;1264;109197;-43
2022/02/22 12:38:17;;;;;;;14.20;3.90;;;;;;;4.70;79.41;98076.56;434349;1263;99325;-39
2022/02/22 12:48:24;;;;;;;16.30;3.90;;;;;;;4.62;79.12;98090.94;434210;1264;112459;-40
2022/02/22 12:58:35;;;;;;;11.60;3.90;;;;;;;4.64;79.18;98111.16;434342;1264;107835;-40
2022/02/22 13:08:45;;;;;;;15.90;5.00;;;;;;;4.70;78.99;98114.77;434252;1264;99260;-42
2022/02/22 13:18:53;;;;;;;24.80;6.40;;;;;;;4.78;78.63;98129.44;434286;1263;107933;-40
2022/02/22 13:29:00;;;;;;;14.10;4.30;;;;;;;4.79;77.68;98140.27;434296;1264;99276;-40
2022/02/22 13:39:20;;;;;;;24.10;10.50;;;;;;;4.69;77.25;98151.81;434339;1263;111456;-40
2022/02/22 13:49:27;;;;;;;16.90;4.20;;;;;;;4.80;76.64;98159.48;434385;1264;108927;-40
2022/02/22 13:59:33;;;;;;;11.90;3.20;;;;;;;5.12;73.61;98165.70;434501;1264;99378;-40
2022/02/22 14:09:41;;;;;;;17.00;5.30;;;;;;;4.79;71.54;98171.70;434514;1264;108863;-40
2022/02/22 14:19:48;;;;;;;17.90;4.10;;;;;;;4.64;69.90;98176.38;434506;1263;98898;-41
2022/02/22 14:29:56;;;;;;;14.40;4.80;;;;;;;4.74;67.69;98190.85;434599;1263;111069;-41
2022/02/22 14:40:03;;;;;;;13.80;3.60;;;;;;;4.70;67.95;98202.09;434533;1263;109459;-41
2022/02/22 14:50:17;;;;;;;16.90;5.20;;;;;;;4.32;68.13;98218.73;434617;1264;99251;-40
2022/02/22 15:00:26;;;;;;;12.30;3.60;;;;;;;4.17;68.51;98224.96;434674;1264;112247;-41
2022/02/22 15:10:41;;;;;;;18.10;6.70;;;;;;;4.18;68.58;98218.80;434641;1264;108257;-43
2022/02/22 15:20:47;;;;;;;;;;;;;;;4.10;69.25;98225.71;434637;1264;99262;-44
2022/02/22 15:30:54;;;;;;;22.20;9.00;;;;;;;3.98;69.55;98226.31;434518;1264;112459;-41
2022/02/22 15:41:02;;;;;;;18.50;5.00;;;;;;;3.85;69.80;98229.23;434610;1264;109657;-43
2022/02/22 15:51:10;;;;;;;27.40;10.80;;;;;;;3.72;69.96;98249.24;434487;1264;99276;-42
2022/02/22 16:01:17;;;;;;;16.30;6.00;;;;;;;3.59;70.07;98264.40;434452;1264;112447;-42
2022/02/22 16:11:24;;;;;;;24.60;10.60;;;;;;;3.51;69.94;98280.91;434375;1264;107982;-40
2022/02/22 16:21:32;;;;;;;17.50;6.20;;;;;;;3.48;69.68;98293.89;434583;1263;99186;-41
2022/02/22 16:31:39;;;;;;;15.10;8.00;;;;;;;3.48;69.53;98318.10;434562;1264;112519;-41
2022/02/22 16:41:46;;;;;;;23.10;10.20;;;;;;;3.54;69.51;98331.77;434591;1264;108648;-40
2022/02/22 17:02:00;;;;;;;31.30;12.20;;;;;;;3.25;71.84;98343.23;434615;1264;112349;-40
2022/02/22 17:12:09;;;;;;;17.20;5.70;;;;;;;3.11;72.30;98354.10;434633;1264;109009;-41
2022/02/22 17:22:18;;;;;;;19.50;6.30;;;;;;;3.10;72.70;98354.30;434660;1263;98390;-41
2022/02/22 17:32:24;;;;;;;;;;;;;;;3.13;72.95;98361.92;434707;1263;108509;-41
2022/02/22 17:42:31;;;;;;;38.70;15.40;;;;;;;3.05;73.10;98374.66;434510;1264;101359;-44
2022/02/22 17:52:39;;;;;;;55.00;23.40;;;;;;;2.96;73.49;98391.02;434692;1263;112394;-42
2022/02/22 18:02:46;;;;;;;34.80;17.20;;;;;;;2.80;73.69;98399.30;434760;1264;107731;-42
2022/02/22 18:12:54;;;;;;;21.00;8.70;;;;;;;2.73;73.99;98400.11;434572;1263;99254;-41
2022/02/22 18:23:01;;;;;;;51.40;19.90;;;;;;;2.82;74.06;98402.03;434586;1263;112225;-42
2022/02/22 18:33:08;;;;;;;41.70;14.50;;;;;;;2.86;74.21;98409.17;434404;1264;108995;-41
2022/02/22 18:43:15;;;;;;;45.80;18.50;;;;;;;2.84;74.39;98405.25;434635;1264;98854;-40
2022/02/22 19:03:30;;;;;;;17.90;4.70;;;;;;;2.66;74.40;98409.96;430504;1264;5525399;-40
2022/02/22 19:13:38;;;;;;;24.40;7.40;;;;;;;2.65;74.39;98413.33;434487;1263;99206;-43
2022/02/22 19:23:45;;;;;;;27.10;7.30;;;;;;;2.59;74.65;98408.11;434498;1264;112437;-41
2022/02/22 19:33:52;;;;;;;25.40;9.20;;;;;;;2.41;74.78;98417.22;434593;1263;108362;-41
2022/02/22 19:43:59;;;;;;;28.60;10.40;;;;;;;2.27;74.96;98415.39;434491;1263;99270;-41
2022/02/22 19:54:05;;;;;;;19.60;6.50;;;;;;;2.18;75.15;98412.89;434371;1264;108803;-42
2022/02/22 20:04:11;;;;;;;21.00;5.60;;;;;;;2.21;75.12;98412.36;434458;1264;98863;-42
2022/02/22 20:24:25;;;;;;;24.20;9.40;;;;;;;2.38;75.62;98416.38;434527;1264;108917;-40
2022/02/22 20:34:33;;;;;;;26.40;10.70;;;;;;;2.29;75.58;98421.16;434604;1264;98043;-42
2022/02/22 20:44:41;;;;;;;29.60;13.00;;;;;;;2.19;75.63;98420.99;434415;1263;108854;-43
2022/02/22 20:54:48;;;;;;;26.40;8.20;;;;;;;2.16;75.55;98420.84;434456;1263;99347;-40
2022/02/22 21:04:56;;;;;;;29.60;12.20;;;;;;;2.22;75.76;98423.48;434470;1264;112392;-41
2022/02/22 21:15:04;;;;;;;53.40;16.40;;;;;;;2.34;75.95;98423.70;434432;1264;108965;-42
2022/02/22 21:25:12;;;;;;;50.20;17.10;;;;;;;2.18;75.93;98419.33;434462;1264;99170;-42
2022/02/22 21:35:19;;;;;;;49.50;17.30;;;;;;;1.91;75.78;98422.98;434556;1264;112693;-42
2022/02/22 21:45:27;;;;;;;28.10;10.50;;;;;;;1.79;75.87;98428.79;434557;1264;109178;-42
2022/02/22 21:55:34;;;;;;;32.10;10.70;;;;;;;1.74;75.92;98427.60;434499;1264;99842;-44
2022/02/22 22:15:49;;;;;;;49.80;17.50;;;;;;;1.60;75.99;98417.11;434529;1264;108884;-41
2022/02/22 22:25:56;;;;;;;62.00;21.50;;;;;;;1.45;76.09;98418.52;434452;1264;99369;-41
2022/02/22 22:36:04;;;;;;;33.00;14.20;;;;;;;1.41;76.15;98407.64;434461;1264;108890;-43
2022/02/22 22:46:20;;;;;;;34.00;13.60;;;;;;;1.56;76.20;98398.98;434439;1264;99287;-40
2022/02/22 22:56:28;;;;;;;39.80;13.70;;;;;;;1.68;76.33;98394.04;434496;1264;111379;-41
2022/02/22 23:17:01;;;;;;;37.50;13.90;;;;;;;1.71;76.34;98374.71;434425;1264;98007;-42
2022/02/22 23:27:09;;;;;;;26.20;10.10;;;;;;;1.70;76.27;98370.40;434576;1264;108868;-40
2022/02/22 23:47:23;;;;;;;35.50;9.60;;;;;;;1.88;76.17;98337.70;434100;1264;112475;-40
2022/02/22 23:57:31;;;;;;;36.60;11.70;;;;;;;1.91;76.27;98325.59;434451;1264;108857;-44
